• Join FlightAware (Why Join?)
  • Login
  • US Flag 
06:32PM EDT


 

Airport Tracker/Info


-or-


 

Live Flight TrackerFlight Track Log ✈ SWR441 ✈ 17-May-2013 ✈ EGLC / LCY - LSGG / GVA

Flight Track Log - Related Links

Times and Time Zones

All times are in EDT time to prevent confusion due to time zone crossing. See the SWR441 flight status page for this flight to view local times or setup timezone preferences in your user account.

Time Position Orientation Groundspeed Altitude Reporting Facility
EDT Latitude Longitude Course Direction KTS MPH feet Rate Location/Type
01:51AM 51.5040 0.0810 91° East 112 129 1,300  Level FlightAware
01:51AM 51.5043 0.0963 91° East 130 150 400 1,920 Descending FlightAware UK
01:51AM 51.5040 0.1020 91° East 123 142 2,100 5,400 Climbing FlightAware
01:51AM 51.5040 0.1110 90° East 137 158 2,200 -2,580 Climbing FlightAware
01:52AM 51.5083 0.1336 90° East 172 198 1,000 1,200 Descending FlightAware UK
01:52AM 51.5090 0.1350 90° East 164 189 2,600 6,600 Climbing FlightAware
01:52AM 51.5200 0.1440 27° Northeast 172 198 3,100 1,980 Climbing FlightAware
01:52AM 51.5330 0.1520 21° North 187 215 3,600 1,920 Climbing FlightAware
01:53AM 51.5520 0.1670 26° Northeast 204 235 4,400 1,920 Climbing FlightAware
01:53AM 51.5580 0.1840 60° Northeast 210 242 4,900 2,220 Climbing FlightAware
01:53AM 51.5600 0.2230 85° East 213 245 5,900 1,380 Climbing FlightAware
01:54AM 51.5550 0.2770 98° East 257 296 6,200 -1,620 Climbing FlightAware
01:54AM 51.5485 0.3121 98° East 272 313 4,700  Descending FlightAware UK
01:54AM 51.5420 0.3330 98° East 270 311 6,200 3,360 Climbing FlightAware
01:55AM 51.5340 0.3610 115° Southeast 268 308 6,400 1,320 Climbing FlightAware
01:55AM 51.5190 0.4090 117° Southeast 277 319 7,100 1,500 Climbing FlightAware
01:55AM 51.5110 0.4350 116° Southeast 279 321 7,400 900 Climbing FlightAware
01:56AM 51.4940 0.4910 116° Southeast 277 319 7,800 -1,200 Climbing FlightAware
01:56AM 51.4812 0.5334 116° Southeast 278 320 6,400 480 Descending FlightAware UK
01:56AM 51.4800 0.5390 116° Southeast 278 320 8,000 180 Climbing FlightAware
01:57AM 51.4643 0.5886 116° Southeast 278 320 6,500  Descending FlightAware UK
01:57AM 51.4630 0.5940 116° Southeast 278 320 8,000 3,600 Climbing FlightAware
01:57AM 51.4480 0.6310 123° Southeast 280 322 8,300 1,800 Climbing FlightAware
01:57AM 51.4270 0.6510 149° Southeast 279 321 9,200 480 Climbing FlightAware
01:58AM 51.3996 0.6678 149° Southeast 288 331 8,600 1,860 Descending FlightAware UK
01:58AM 51.3700 0.6830 149° Southeast 301 346 10,600 4,500 Climbing FlightAware
01:58AM 51.3630 0.6863 164° South 305 351 10,700 -2,760 Climbing FlightAware ADS-B
01:59AM 51.3356 0.7003 164° South 322 371 9,500 1,380 Descending FlightAware UK
01:59AM 51.3207 0.7079 164° South 325 374 11,400 1,620 Climbing FlightAware ADS-B
01:59AM 51.2839 0.7270 164° South 344 396 10,500 1,080 Descending FlightAware UK
01:59AM 51.2751 0.7313 164° South 336 387 12,000 240 Climbing FlightAware ADS-B
02:00AM 51.2484 0.7463 164° South 348 400 10,600 1,080 Descending FlightAware UK
02:00AM 51.2274 0.7574 164° South 336 387 12,600 1,800 Climbing FlightAware ADS-B
02:00AM 51.1949 0.7746 164° South 352 405 11,700 1,440 Descending FlightAware UK
02:00AM 51.1792 0.7825 164° South 340 391 13,400 3,240 Climbing FlightAware ADS-B
02:01AM 51.1331 0.8073 161° South 338 389 14,000 1,440 Climbing FlightAware ADS-B
02:01AM 51.0879 0.8332 160° South 341 392 14,900 -180 Climbing FlightAware ADS-B
02:02AM 51.0615 0.8477 160° South 364 419 13,900 2,100 Descending FlightAware UK
02:02AM 51.0425 0.8562 160° South 336 387 16,000 6,480 Climbing FlightAware ADS-B
02:02AM 51.0255 0.8624 167° South 336 387 16,500 2,460 Climbing FlightAware ADS-B
02:02AM 51.0161 0.8630 178° South 338 389 16,700 1,680 Climbing FlightAware ADS-B
02:02AM 51.0036 0.8599 189° South 344 396 16,900 1,140 Climbing FlightAware ADS-B
02:02AM 50.9842 0.8484 200° South 356 410 17,100 1,320 Climbing FlightAware ADS-B
02:03AM 50.9720 0.8357 213° Southwest 358 412 17,400 2,040 Climbing FlightAware ADS-B
02:03AM 50.9287 0.7857 216° Southwest 358 412 18,500 360 Climbing FlightAware ADS-B
02:04AM 50.8918 0.7430 216° Southwest 378 435 17,800 1,740 Descending FlightAware UK
02:04AM 50.8753 0.7255 216° Southwest 350 403 19,700 1,200 Climbing FlightAware ADS-B
02:04AM 50.8525 0.6979 216° Southwest 382 440 18,400 540 Descending FlightAware UK
02:04AM 50.8332 0.6764 216° Southwest 357 411 20,000 180 Climbing FlightAware ADS-B
02:05AM 50.8127 0.6510 216° Southwest 394 453 18,500 780 Descending FlightAware UK
02:05AM 50.7938 0.6291 216° Southwest 358 412 20,400 1,200 Climbing FlightAware ADS-B
02:05AM 50.7728 0.6034 216° Southwest 392 451 19,100 720 Descending FlightAware UK
02:05AM 50.7580 0.5860 216° Southwest 364 419 20,800 6,000 Climbing FlightAware
02:05AM 50.7482 0.5745 217° Southwest 365 420 20,900 -3,180 Climbing FlightAware ADS-B
02:06AM 50.7250 0.5455 217° Southwest 394 453 19,700 1,320 Descending FlightAware UK
02:06AM 50.7075 0.5243 217° Southwest 362 417 21,600 1,560 Climbing FlightAware ADS-B
02:06AM 50.6849 0.4964 217° Southwest 394 453 20,500 1,320 Descending FlightAware UK
02:06AM 50.6664 0.4737 217° Southwest 359 413 22,300 1,140 Climbing FlightAware ADS-B
02:07AM 50.6383 0.4372 217° Southwest 392 451 21,200 1,140 Descending FlightAware UK
02:07AM 50.6268 0.4225 217° Southwest 360 414 22,900 1,200 Climbing FlightAware ADS-B
02:07AM 50.5997 0.3874 217° Southwest 392 451 21,800 1,260 Descending FlightAware UK
02:08AM 50.5846 0.3695 217° Southwest 360 414 23,600 4,020 Climbing FlightAware ADS-B
02:08AM 50.5570 0.3489 205° Southwest 336 387 23,900 1,200 Climbing FlightAware ADS-B
02:08AM 50.5476 0.3468 188° South 332 382 24,100 -2,880 Climbing FlightAware ADS-B
02:08AM 50.5220 0.3477 188° South 388 447 22,800 900 Descending FlightAware UK
02:08AM 50.4983 0.3509 188° South 328 377 24,600 960 Climbing FlightAware ADS-B
02:09AM 50.4581 0.3558 188° South 388 447 23,500 960 Descending FlightAware UK
02:09AM 50.4420 0.3582 188° South 330 380 25,200 3,480 Climbing FlightAware ADS-B
02:10AM 50.3958 0.3649 175° South 327 376 25,900 1,320 Climbing FlightAware ADS-B
02:10AM 50.3898 0.3662 172° South 324 373 26,000 1,500 Climbing FlightAware ADS-B
02:10AM 50.3676 0.3790 160° South 320 368 26,400 1,260 Climbing FlightAware ADS-B
02:10AM 50.3281 0.4112 152° Southeast 316 364 27,000 -360 Climbing FlightAware ADS-B
02:11AM 50.2991 0.4362 152° Southeast 382 440 26,100 1,500 Descending FlightAware UK
02:11AM 50.2880 0.4455 152° Southeast 309 356 27,800 960 Climbing FlightAware ADS-B
02:11AM 50.2695 0.4614 152° Southeast 380 437 26,500 900 Descending FlightAware UK
02:12AM 50.2484 0.4784 152° Southeast 309 356 28,300 780 Climbing FlightAware ADS-B
02:12AM 50.2245 0.4996 152° Southeast 382 440 27,000 780 Descending FlightAware UK
02:12AM 50.2005 0.5198 152° Southeast 311 358 28,800 660 Climbing FlightAware ADS-B
02:12AM 50.1788 0.5381 152° Southeast 388 447 27,400 -2,400 Descending FlightAware UK
02:13AM 50.1562 0.5572 152° Southeast 394 453 27,400 4,320 Level FlightAware UK
02:13AM 50.1610 0.5530 152° Southeast 316 364 29,000 240 Climbing FlightAware
02:13AM 50.1245 0.5845 152° Southeast 394 453 27,500  Descending FlightAware UK
02:14AM 50.0980 0.6060 152° Southeast 311 358 29,000 -180 Climbing FlightAware
02:14AM 50.0701 0.6301 152° Southeast 394 453 27,400  Descending FlightAware UK
02:14AM 50.0480 0.6510 152° Southeast 318 366 29,000  Climbing FlightAware
02:15AM 50.0137 0.6959 152° Southeast 394 453 27,400  Descending FlightAware UK
02:15AM 50.0050 0.7060 152° Southeast 318 366 29,000  Climbing FlightAware
02:15AM 49.9795 0.7394 152° Southeast 394 453 27,400  Descending FlightAware UK
02:16AM 49.9510 0.7760 152° Southeast 318 366 29,000  Climbing FlightAware
02:16AM 49.9246 0.8098 152° Southeast 394 453 27,400  Descending FlightAware UK
02:16AM 49.9080 0.8310 152° Southeast 314 361 29,000 2,520 Climbing FlightAware
02:17AM 49.8820 0.8634 141° Southeast 321 369 29,000 -3,000 Level FlightAware ADS-B
02:17AM 49.8628 0.8888 141° Southeast 394 453 27,400 -2,880 Descending FlightAware UK
02:17AM 49.8421 0.9152 141° Southeast 394 453 27,400 2,460 Level FlightAware UK
02:17AM 49.8182 0.9452 141° Southeast 321 369 29,000  Climbing FlightAware ADS-B
02:18AM 49.7937 0.9767 141° Southeast 394 453 27,400 -2,160 Descending FlightAware UK
02:18AM 49.7660 1.0117 141° Southeast 394 453 27,400 3,060 Level FlightAware UK
02:18AM 49.7586 1.0198 141° Southeast 322 371 29,000  Climbing FlightAware ADS-B
02:19AM 49.7383 1.0468 141° Southeast 396 456 27,400 -2,700 Descending FlightAware UK
02:19AM 49.7173 1.0734 141° Southeast 396 456 27,400 3,180 Level FlightAware UK
02:19AM 49.7100 1.0830 141° Southeast 316 364 29,000 5,640 Climbing FlightAware
02:19AM 49.6968 1.0986 143° Southeast 323 372 29,000 -3,120 Level FlightAware ADS-B
02:20AM 49.6688 1.1346 143° Southeast 394 453 27,400  Descending FlightAware UK
02:20AM 49.6619 1.1422 143° Southeast 321 369 29,000  Climbing FlightAware ADS-B
02:20AM 49.6411 1.1694 143° Southeast 396 456 27,400  Descending FlightAware UK
02:20AM 49.6205 1.1943 143° Southeast 320 368 29,000  Climbing FlightAware ADS-B
02:21AM 49.5997 1.2216 143° Southeast 394 453 27,400  Descending FlightAware UK
02:21AM 49.5841 1.2403 143° Southeast 318 366 29,000  Climbing FlightAware ADS-B
02:21AM 49.5654 1.2647 143° Southeast 394 453 27,400  Descending FlightAware UK
02:21AM 49.5462 1.2876 143° Southeast 318 366 29,000 1,620 Climbing FlightAware ADS-B
02:22AM 49.4978 1.3476 141° Southeast 318 366 29,000 -1,440 Level FlightAware ADS-B
02:23AM 49.4696 1.3848 141° Southeast 394 453 27,400  Descending FlightAware UK
02:23AM 49.4431 1.4161 141° Southeast 319 367 29,000  Climbing FlightAware ADS-B
02:23AM 49.4211 1.4448 141° Southeast 396 456 27,400  Descending FlightAware UK
02:23AM 49.4058 1.4633 141° Southeast 318 366 29,000 2,160 Climbing FlightAware ADS-B
02:24AM 49.3709 1.5057 142° Southeast 318 366 29,000 -1,860 Level FlightAware ADS-B
02:24AM 49.3458 1.5384 142° Southeast 394 453 27,400  Descending FlightAware UK
02:24AM 49.3353 1.5495 142° Southeast 316 364 29,000 2,340 Climbing FlightAware ADS-B
02:25AM 49.2990 1.5945 141° Southeast 315 362 29,000 -1,920 Level FlightAware ADS-B
02:25AM 49.2774 1.6230 141° Southeast 394 453 27,400  Descending FlightAware UK
02:26AM 49.2585 1.6451 141° Southeast 316 364 29,000  Climbing FlightAware ADS-B
02:26AM 49.2296 1.6823 141° Southeast 396 456 27,400  Descending FlightAware UK
02:26AM 49.2290 1.6820 141° Southeast 316 364 29,000 12,000 Climbing FlightAware
02:26AM 49.2202 1.6927 141° Southeast 317 365 29,000 -5,100 Level FlightAware ADS-B
02:26AM 49.2022 1.7159 141° Southeast 396 456 27,400  Descending FlightAware UK
02:27AM 49.1858 1.7348 141° Southeast 316 364 29,000 2,160 Climbing FlightAware ADS-B
02:27AM 49.1515 1.7767 141° Southeast 315 362 29,000  Level FlightAware ADS-B
02:28AM 49.1120 1.8241 142° Southeast 316 364 29,000  Level FlightAware ADS-B
02:28AM 49.0765 1.8687 141° Southeast 317 365 29,000  Level FlightAware ADS-B
02:29AM 49.0415 1.9106 142° Southeast 317 365 29,000 -2,100 Level FlightAware ADS-B
02:29AM 49.0238 1.9338 142° Southeast 394 453 27,400  Descending FlightAware UK
02:29AM 49.0059 1.9540 142° Southeast 318 366 29,000  Climbing FlightAware ADS-B
02:30AM 48.9827 1.9846 142° Southeast 394 453 27,400  Descending FlightAware UK
02:30AM 48.9707 1.9975 142° Southeast 319 367 29,000  Climbing FlightAware ADS-B
02:30AM 48.9479 2.0264 142° Southeast 396 456 27,400  Descending FlightAware UK
02:30AM 48.9337 2.0424 142° Southeast 319 367 29,000  Climbing FlightAware ADS-B
02:31AM 48.9062 2.0767 142° Southeast 394 453 27,400  Descending FlightAware UK
02:31AM 48.8953 2.0884 142° Southeast 319 367 29,000  Climbing FlightAware ADS-B
02:31AM 48.8781 2.1100 142° Southeast 394 453 27,400  Descending FlightAware UK
02:31AM 48.8600 2.1301 142° Southeast 320 368 29,000  Climbing FlightAware ADS-B
02:32AM 48.8367 2.1604 142° Southeast 396 456 27,400  Descending FlightAware UK
02:32AM 48.8246 2.1734 142° Southeast 320 368 29,000 2,220 Climbing FlightAware ADS-B
02:32AM 48.7874 2.2181 142° Southeast 319 367 29,000 -1,920 Level FlightAware ADS-B
02:33AM 48.7672 2.2440 142° Southeast 398 458 27,400  Descending FlightAware UK
02:33AM 48.7510 2.2622 142° Southeast 315 362 29,000 2,040 Climbing FlightAware ADS-B
02:34AM 48.7137 2.3071 142° Southeast 312 359 29,000  Level FlightAware ADS-B
02:34AM 48.6790 2.3477 142° Southeast 312 359 29,000  Level FlightAware ADS-B
02:35AM 48.6448 2.3883 142° Southeast 314 361 29,000  Level FlightAware ADS-B
02:35AM 48.6098 2.4306 141° Southeast 315 362 29,000  Level FlightAware ADS-B
02:36AM 48.5755 2.4714 142° Southeast 315 362 29,000  Level FlightAware ADS-B
02:36AM 48.5403 2.5134 142° Southeast 313 360 29,000  Level FlightAware ADS-B
02:37AM 48.4866 2.5769 142° Southeast 313 360 29,000  Level FlightAware ADS-B
02:37AM 48.4495 2.6214 142° Southeast 313 360 29,000  Level FlightAware ADS-B
02:38AM 48.4151 2.6616 142° Southeast 313 360 29,000  Level FlightAware ADS-B
02:38AM 48.3792 2.7034 142° Southeast 313 360 29,000  Level FlightAware ADS-B
02:39AM 48.3132 2.7812 142° Southeast 315 362 29,000  Level FlightAware ADS-B
02:40AM 48.2765 2.8244 142° Southeast 316 364 29,000  Level FlightAware ADS-B
02:40AM 48.2409 2.8661 142° Southeast 316 364 29,000  Level FlightAware ADS-B
02:41AM 48.2054 2.9062 143° Southeast 316 364 29,000  Level FlightAware ADS-B
02:41AM 48.1680 2.9502 142° Southeast 316 364 29,000  Level FlightAware ADS-B
02:42AM 48.1319 2.9917 143° Southeast 316 364 29,000  Level FlightAware ADS-B
02:43AM 48.0944 3.0343 143° Southeast 316 364 29,000  Level FlightAware ADS-B
02:43AM 48.0736 3.0534 148° Southeast 317 365 29,000  Level FlightAware ADS-B
02:43AM 48.0317 3.0807 157° South 317 365 29,000  Level FlightAware ADS-B
02:44AM 47.9900 3.1070 157° South 317 365 29,000  Level FlightAware
02:45AM 47.9370 3.1400 157° South 318 366 29,000  Level FlightAware
02:45AM 47.8820 3.1740 157° South 317 365 29,000  Level FlightAware
02:46AM 47.8230 3.2110 157° South 316 364 29,000  Level FlightAware
02:47AM 47.7670 3.2460 157° South 316 364 29,000  Level FlightAware
02:47AM 47.7130 3.2800 157° South 318 366 29,000  Level FlightAware
02:48AM 47.6510 3.3180 158° South 319 367 29,000  Level FlightAware
02:49AM 47.5950 3.3530 157° South 319 367 29,000  Level FlightAware
02:49AM 47.5370 3.3890 157° South 321 369 29,000  Level FlightAware
02:50AM 47.4810 3.4240 157° South 320 368 29,000  Level FlightAware
02:51AM 47.4260 3.4580 157° South 319 367 29,000  Level FlightAware
02:52AM 47.3680 3.4930 158° South 320 368 29,000  Level FlightAware
02:52AM 47.3090 3.5300 157° South 321 369 29,000  Level FlightAware
02:53AM 47.2562 3.5616 158° South 321 369 29,000  Level FlightAware ADS-B
02:54AM 47.1855 3.6055 157° South 321 369 29,000  Level FlightAware ADS-B
02:54AM 47.1665 3.6265 143° Southeast 321 369 29,000  Level FlightAware ADS-B
02:54AM 47.1595 3.6406 126° Southeast 323 372 29,000  Level FlightAware ADS-B
02:54AM 47.1469 3.6780 116° Southeast 326 375 29,000  Level FlightAware ADS-B
02:55AM 47.1201 3.7648 114° Southeast 327 376 29,000  Level FlightAware ADS-B
02:56AM 47.0931 3.8539 114° Southeast 327 376 29,000  Level FlightAware ADS-B
02:57AM 47.0599 3.9605 115° Southeast 326 375 29,000  Level FlightAware ADS-B
02:57AM 47.0367 4.0325 115° Southeast 325 374 29,000  Level FlightAware ADS-B
02:58AM 47.0158 4.0985 115° Southeast 325 374 29,000  Level FlightAware ADS-B
02:58AM 46.9955 4.1623 115° Southeast 325 374 29,000  Level FlightAware ADS-B
02:59AM 46.9736 4.2323 115° Southeast 326 375 29,000  Level FlightAware ADS-B
03:00AM 46.9523 4.3006 115° Southeast 327 376 29,000  Level FlightAware ADS-B
03:00AM 46.9297 4.3726 115° Southeast 326 375 29,000 -660 Level FlightAware ADS-B
03:01AM 46.8940 4.4820 115° Southeast 327 376 28,000 -1,260 Descending FlightAware
03:02AM 46.8690 4.5620 115° Southeast 335 386 27,000 -1,500 Descending FlightAware
03:02AM 46.8430 4.6440 115° Southeast 338 389 26,000 -1,500 Descending FlightAware
03:03AM 46.8110 4.7420 115° Southeast 347 399 24,900 -1,440 Descending FlightAware
03:04AM 46.7840 4.8260 115° Southeast 356 410 24,000 -1,200 Descending FlightAware
03:05AM 46.7550 4.9150 115° Southeast 352 405 23,300 -720 Descending FlightAware
03:05AM 46.7230 5.0120 116° Southeast 352 405 23,000 -240 Descending FlightAware
03:06AM 46.6960 5.0950 115° Southeast 352 405 23,000  Level FlightAware
03:07AM 46.6670 5.1940 113° Southeast 359 413 23,000 -300 Level FlightAware
03:07AM 46.6520 5.2910 103° East 360 414 22,600 -1,320 Descending FlightAware
03:08AM 46.6360 5.3950 103° East 356 410 21,200 -1,920 Descending FlightAware
03:09AM 46.6210 5.4900 103° East 356 410 19,900 -1,980 Descending FlightAware
03:09AM 46.6070 5.5810 103° East 335 386 18,600 -1,920 Descending FlightAware
03:10AM 46.5920 5.6770 103° East 313 360 17,200 -1,860 Descending FlightAware
03:11AM 46.5800 5.7560 102° East 306 352 16,000 -1,920 Descending FlightAware
03:12AM 46.5670 5.8380 103° East 304 350 14,700 -1,920 Descending FlightAware
03:12AM 46.5540 5.9230 103° East 303 349 13,300 -1,800 Descending FlightAware
03:13AM 46.5420 6.0290 99° East 303 349 11,700 -1,500 Descending FlightAware
03:14AM 46.5460 6.1090 86° East 284 327 11,000 -1,140 Descending FlightAware
03:15AM 46.5500 6.1920 86° East 276 318 10,100 -1,140 Descending FlightAware
03:15AM 46.5520 6.2380 86° East 268 308 9,700 -780 Descending FlightAware
03:16AM 46.5530 6.2910 88° East 266 306 9,400 -720 Descending FlightAware
03:16AM 46.5540 6.3290 88° East 265 305 9,100 -780 Descending FlightAware
03:16AM 46.5470 6.3600 108° East 254 292 8,900 -900 Descending FlightAware
03:16AM 46.5350 6.3800 131° Southeast 251 289 8,600 -1,020 Descending FlightAware
03:17AM 46.5220 6.3970 138° Southeast 247 284 8,400 -900 Descending FlightAware
03:17AM 46.5020 6.4220 139° Southeast 233 268 8,000 -900 Descending FlightAware
03:17AM 46.4850 6.4290 164° South 224 258 7,800 -840 Descending FlightAware
03:18AM 46.4540 6.4170 195° South 223 257 7,400 -840 Descending FlightAware
03:18AM 46.4410 6.4080 206° Southwest 220 253 7,200 -1,020 Descending FlightAware
03:18AM 46.4300 6.3930 223° Southwest 210 242 6,900 -1,200 Descending FlightAware
03:19AM 46.4130 6.3670 227° Southwest 187 215 6,400 -1,140 Descending FlightAware
03:19AM 46.3950 6.3410 225° Southwest 169 194 5,900 -1,020 Descending FlightAware
03:20AM 46.3820 6.3220 225° Southwest 163 188 5,500 -1,020 Descending FlightAware
03:20AM 46.3660 6.2980 226° Southwest 164 189 5,000 -1,020 Descending FlightAware
03:21AM 46.3500 6.2740 226° Southwest 164 189 4,500 -900 Descending FlightAware
03:21AM 46.3370 6.2540 227° Southwest 144 166 4,200 -780 Descending FlightAware
03:21AM 46.3300 6.2440 225° Southwest 137 158 4,000 -840 Descending FlightAware
03:22AM 46.3160 6.2240 225° Southwest 140 161 3,600 -780 Descending FlightAware
03:22AM 46.3050 6.2080 225° Southwest 123 142 3,300 -780 Descending FlightAware
03:23AM 46.2930 6.1900 226° Southwest 121 139 2,900 -660 Descending FlightAware
03:23AM 46.2830 6.1750 226° Southwest 121 139 2,700 -660 Descending FlightAware
03:24AM 46.2700 6.1560 225° Southwest 124 143 2,300 -840 Descending FlightAware
03:24AM 46.2580 6.1380 226° Southwest 124 143 1,900 -660 Descending FlightAware
03:25AM 46.2470 6.1230 223° Southwest 119 137 1,700 -480 Descending FlightAware